Schoenchen, Kansas
Current Conditions -  °F | °C
As of 1:35 PM on Thursday 27 Nov 2014 (Local Time) from KHYS Reporting Station
Clear Clear  
Wind Chill: 39°   Ceiling: Unl
Heat Index: 46°   Visibility: 10mi
Dew Point: 21°   Wind: 21mph
Humidity: 37%   Direction: 180°S
Pressure: 30.23"   Gusts: 28mph
Location:  38.71°N, 99.33°W
Report Text: KHYS 271935Z AUTO 18018G24KT 10SM CLR 08/M06 A3023 RMK AO1
Loading
Personal Weather Stations






























Interactive Weather Map New forecast layout! Learn more

10-Day Weather Forecast

Advertisements
Track Severe Weather on mobile